createdAt,value
2023-01-30T00:01:16.441Z,97.07
2023-01-30T00:04:01.530Z,96.83
2023-01-30T00:06:46.736Z,96.51
2023-01-30T00:09:31.720Z,96.43
2023-01-30T00:12:16.861Z,96.38
2023-01-30T00:15:02.398Z,96.24
2023-01-30T00:17:47.650Z,96.43
2023-01-30T00:20:33.679Z,96.42
2023-01-30T00:23:18.963Z,96.24
2023-01-30T00:26:27.009Z,95.76
2023-01-30T00:29:13.444Z,95.49
2023-01-30T00:32:00.218Z,95.66
2023-01-30T00:34:46.986Z,95.61
2023-01-30T00:37:33.654Z,95.37
2023-01-30T00:40:20.716Z,95.55
2023-01-30T00:43:26.113Z,95.47
2023-01-30T00:46:46.071Z,95.20
2023-01-30T00:49:33.548Z,95.56
2023-01-30T00:52:20.156Z,96.08
2023-01-30T00:55:07.651Z,96.44
2023-01-30T00:57:53.978Z,96.97
2023-01-30T01:00:40.724Z,97.51
2023-01-30T01:03:36.166Z,97.69
2023-01-30T01:07:31.421Z,97.83
2023-01-30T01:10:18.301Z,97.80
2023-01-30T01:13:07.021Z,97.83
2023-01-30T01:16:06.294Z,97.77
2023-01-30T01:18:53.905Z,97.57
2023-01-30T01:21:51.317Z,97.47
2023-01-30T01:24:37.953Z,97.74
2023-01-30T01:27:24.860Z,97.70
2023-01-30T01:30:12.480Z,97.45
2023-01-30T01:32:58.956Z,97.09
2023-01-30T01:35:47.690Z,96.97
2023-01-30T01:38:34.407Z,96.62
2023-01-30T01:41:20.969Z,96.22
2023-01-30T01:46:08.521Z,95.46
2023-01-30T01:50:27.053Z,95.40
2023-01-30T01:53:47.392Z,95.51
2023-01-30T01:57:51.425Z,95.61
2023-01-30T02:02:10.443Z,95.58
2023-01-30T02:05:52.454Z,95.14
2023-01-30T02:09:00.707Z,94.71
2023-01-30T02:13:00.609Z,94.62
2023-01-30T02:16:59.979Z,94.49
2023-01-30T02:20:02.025Z,94.27
2023-01-30T02:23:06.834Z,94.30
2023-01-30T02:26:25.623Z,94.05
2023-01-30T02:29:41.314Z,93.66
2023-01-30T02:34:23.289Z,93.88
2023-01-30T02:38:03.217Z,93.87
2023-01-30T02:41:41.930Z,93.77
2023-01-30T02:45:01.674Z,93.89
2023-01-30T02:50:12.882Z,93.94
2023-01-30T02:54:19.381Z,93.76
2023-01-30T02:58:12.904Z,93.31
2023-01-30T03:02:45.374Z,92.77
2023-01-30T03:06:04.504Z,92.51
2023-01-30T03:10:05.745Z,92.05
2023-01-30T03:14:23.697Z,91.25
2023-01-30T03:18:20.403Z,91.48
2023-01-30T03:22:17.410Z,91.14
2023-01-30T03:26:36.049Z,90.95
2023-01-30T03:30:34.091Z,90.99
2023-01-30T03:34:31.273Z,91.65
2023-01-30T03:37:18.280Z,92.00
2023-01-30T03:40:05.509Z,92.23
2023-01-30T03:42:52.252Z,92.70
2023-01-30T03:45:38.689Z,93.01
2023-01-30T03:48:25.397Z,93.40
2023-01-30T03:51:15.556Z,93.61
2023-01-30T03:54:02.401Z,94.06
2023-01-30T03:56:49.140Z,94.59
2023-01-30T03:59:37.618Z,95.22
2023-01-30T04:02:26.248Z,95.12
2023-01-30T04:05:13.055Z,95.79
2023-01-30T04:07:59.991Z,96.50
2023-01-30T04:10:48.035Z,96.27
2023-01-30T04:13:34.743Z,96.48
2023-01-30T04:16:24.157Z,96.08
2023-01-30T04:19:10.826Z,95.86
2023-01-30T04:21:57.475Z,95.50
2023-01-30T04:24:44.223Z,95.28
2023-01-30T04:27:30.888Z,94.96
2023-01-30T04:30:17.869Z,94.13
2023-01-30T04:33:04.411Z,93.83
2023-01-30T04:35:56.062Z,93.63
2023-01-30T04:38:43.364Z,93.86
2023-01-30T04:41:30.004Z,94.07
2023-01-30T04:44:18.844Z,93.93
2023-01-30T04:47:05.577Z,94.36
2023-01-30T04:49:52.017Z,94.45
2023-01-30T04:52:39.909Z,93.26
2023-01-30T04:56:09.521Z,93.06
2023-01-30T05:00:05.868Z,91.55
2023-01-30T05:04:03.512Z,91.46
2023-01-30T05:08:01.705Z,91.49
2023-01-30T05:11:57.923Z,90.35
2023-01-30T05:15:54.547Z,90.14
2023-01-30T05:18:41.587Z,90.11
2023-01-30T05:21:29.970Z,89.87
2023-01-30T05:24:34.215Z,89.92
2023-01-30T05:27:21.243Z,89.42
2023-01-30T05:32:40.601Z,89.33
2023-01-30T05:36:38.217Z,89.24
2023-01-30T05:40:38.359Z,89.49
2023-01-30T05:44:13.149Z,89.88
2023-01-30T05:48:15.780Z,90.23
2023-01-30T05:52:13.933Z,90.20
2023-01-30T05:56:11.874Z,90.19
2023-01-30T06:10:38.227Z,88.44
2023-01-30T06:13:47.017Z,88.33
2023-01-30T06:17:43.789Z,88.37
2023-01-30T06:21:09.520Z,88.75
2023-01-30T06:24:28.052Z,89.00
2023-01-30T06:28:26.253Z,88.92
2023-01-30T06:31:13.454Z,88.68
2023-01-30T06:34:00.812Z,88.60
2023-01-30T06:36:47.584Z,88.31
2023-01-30T06:55:52.063Z,86.06
2023-01-30T07:09:38.525Z,84.48
2023-01-30T07:12:32.937Z,84.20
2023-01-30T07:16:49.453Z,84.41
2023-01-30T07:19:34.523Z,84.08
2023-01-30T07:22:23.303Z,83.90
2023-01-30T07:25:08.982Z,83.39
2023-01-30T07:27:59.181Z,83.75
2023-01-30T07:30:27.736Z,83.51
2023-01-30T07:33:13.358Z,83.76
2023-01-30T07:35:58.612Z,84.57
2023-01-30T07:40:39.415Z,85.10
2023-01-30T07:43:25.801Z,85.54
2023-01-30T07:46:14.547Z,86.33
2023-01-30T07:49:02.320Z,86.49
2023-01-30T07:51:49.027Z,86.60
2023-01-30T07:54:35.646Z,87.13
2023-01-30T07:57:33.254Z,87.25
2023-01-30T08:01:28.279Z,88.27
2023-01-30T08:05:31.370Z,89.22
2023-01-30T08:09:26.541Z,90.55
2023-01-30T08:12:13.773Z,90.84
2023-01-30T08:15:01.029Z,91.64
2023-01-30T08:17:56.970Z,92.01
2023-01-30T08:20:43.657Z,92.84
2023-01-30T08:24:38.744Z,93.36
2023-01-30T08:34:43.299Z,94.35
2023-01-30T08:38:40.619Z,94.66
2023-01-30T08:41:28.474Z,94.80
2023-01-30T08:44:15.415Z,94.76
2023-01-30T08:47:02.197Z,95.09
2023-01-30T08:49:59.671Z,95.26
2023-01-30T08:52:57.798Z,95.30
2023-01-30T08:55:45.438Z,95.42
2023-01-30T08:58:43.968Z,95.97
2023-01-30T09:01:30.530Z,96.13
2023-01-30T09:04:19.943Z,95.69
2023-01-30T09:07:22.582Z,95.17
2023-01-30T09:10:09.901Z,95.20
2023-01-30T09:12:56.769Z,95.72
2023-01-30T09:15:44.312Z,95.64
2023-01-30T09:18:31.336Z,95.51
2023-01-30T09:32:16.340Z,95.19
2023-01-30T09:35:19.200Z,95.24
2023-01-30T09:38:05.924Z,95.92
2023-01-30T09:41:18.491Z,96.12
2023-01-30T09:44:31.107Z,95.86
2023-01-30T09:47:42.612Z,95.59
2023-01-30T09:50:57.985Z,95.51
2023-01-30T09:54:03.651Z,95.60
2023-01-30T09:56:58.485Z,95.62
2023-01-30T09:59:54.896Z,95.25
2023-01-30T10:02:52.319Z,95.24
2023-01-30T10:05:48.483Z,95.38
2023-01-30T10:08:58.117Z,95.77
2023-01-30T10:12:13.998Z,96.45
2023-01-30T10:15:34.951Z,96.09
2023-01-30T10:18:47.916Z,96.34
2023-01-30T10:21:56.390Z,96.21
2023-01-30T10:25:15.449Z,96.36
2023-01-30T10:28:26.968Z,96.25
2023-01-30T10:31:28.310Z,96.38
2023-01-30T10:35:34.374Z,97.06
2023-01-30T10:40:01.984Z,97.59
2023-01-30T10:43:51.130Z,98.19
2023-01-30T10:48:26.548Z,98.80
2023-01-30T10:51:46.264Z,98.98
2023-01-30T10:56:09.342Z,99.33
2023-01-30T10:59:20.342Z,99.25
2023-01-30T11:02:31.018Z,99.33
2023-01-30T11:05:38.808Z,99.35
2023-01-30T11:08:27.174Z,98.91
2023-01-30T11:12:00.305Z,99.48
2023-01-30T11:15:58.514Z,99.43
2023-01-30T11:19:18.931Z,99.55
2023-01-30T11:22:02.888Z,99.82
2023-01-30T11:24:49.602Z,99.48
2023-01-30T11:27:37.456Z,99.30
2023-01-30T11:30:30.301Z,99.29
2023-01-30T11:33:18.281Z,99.28
2023-01-30T11:36:07.388Z,99.03
2023-01-30T11:39:05.143Z,98.66
2023-01-30T11:42:04.910Z,98.11
2023-01-30T11:56:54.714Z,96.06
2023-01-30T12:00:04.909Z,95.51
2023-01-30T12:03:30.503Z,95.74
2023-01-30T12:06:23.403Z,96.41
2023-01-30T12:09:32.346Z,96.79
2023-01-30T12:12:58.277Z,96.94
2023-01-30T12:15:48.396Z,96.83
2023-01-30T12:20:28.553Z,97.06
2023-01-30T12:25:18.530Z,97.31
2023-01-30T12:33:59.220Z,98.95
2023-01-30T12:38:00.741Z,99.32
2023-01-30T12:42:39.988Z,99.78
2023-01-30T12:46:11.070Z,99.52
2023-01-30T12:49:25.122Z,99.42
2023-01-30T12:52:45.817Z,98.69
2023-01-30T12:55:38.796Z,98.03
2023-01-30T12:58:46.927Z,97.80
2023-01-30T13:02:58.232Z,98.10
2023-01-30T13:07:30.258Z,98.48
2023-01-30T13:10:54.351Z,98.35
2023-01-30T13:15:11.312Z,98.75
2023-01-30T13:19:21.124Z,99.08
2023-01-30T13:22:54.486Z,98.64
2023-01-30T13:26:04.002Z,99.17
2023-01-30T13:29:05.887Z,99.33
2023-01-30T13:31:57.258Z,99.33
2023-01-30T13:34:48.024Z,99.29
2023-01-30T13:37:38.977Z,99.46
2023-01-30T13:40:29.653Z,99.49
2023-01-30T13:43:25.763Z,99.55
2023-01-30T13:46:54.345Z,99.37
2023-01-30T13:51:01.958Z,99.80
2023-01-30T13:53:53.852Z,100.00
2023-01-30T13:56:57.837Z,100.00
2023-01-30T14:00:31.538Z,100.00
2023-01-30T14:03:30.343Z,100.00
2023-01-30T14:06:33.708Z,100.00
2023-01-30T14:09:29.379Z,100.00
2023-01-30T14:12:23.658Z,100.00
2023-01-30T14:15:16.637Z,99.93
2023-01-30T14:18:23.422Z,99.68
2023-01-30T14:21:24.557Z,99.40
2023-01-30T14:26:53.369Z,99.00
2023-01-30T14:30:53.497Z,99.24
2023-01-30T14:33:51.243Z,99.09
2023-01-30T14:36:47.612Z,99.07
2023-01-30T14:39:41.088Z,98.87
2023-01-30T14:45:17.899Z,98.63
2023-01-30T14:49:26.673Z,98.71
2023-01-30T14:53:25.420Z,98.71
2023-01-30T14:57:32.954Z,98.75
2023-01-30T15:02:13.023Z,99.08
2023-01-30T15:06:11.019Z,99.12
2023-01-30T15:10:24.551Z,99.10
2023-01-30T15:14:29.981Z,99.29
2023-01-30T15:17:33.185Z,99.43
2023-01-30T15:21:19.555Z,99.65
2023-01-30T15:24:40.581Z,99.35
2023-01-30T15:29:05.727Z,99.26
2023-01-30T15:33:30.433Z,99.00
2023-01-30T15:47:21.838Z,97.84
2023-01-30T15:50:36.504Z,97.42
2023-01-30T15:53:57.920Z,97.26
2023-01-30T16:08:29.139Z,96.37
2023-01-30T16:27:18.553Z,95.48
2023-01-30T16:40:49.808Z,94.18
2023-01-30T16:43:45.737Z,93.85
2023-01-30T16:48:17.118Z,94.23
2023-01-30T16:53:09.291Z,95.11
2023-01-30T16:57:04.918Z,95.30
2023-01-30T17:01:40.107Z,94.87
2023-01-30T17:04:43.865Z,94.89
2023-01-30T17:18:51.747Z,93.67
2023-01-30T17:21:51.668Z,93.62
2023-01-30T17:26:44.783Z,94.37
2023-01-30T17:30:42.239Z,95.52
2023-01-30T17:34:52.709Z,95.60
2023-01-30T17:38:24.387Z,95.86
2023-01-30T17:52:43.877Z,93.54
2023-01-30T18:47:46.501Z,91.17
2023-01-30T18:50:49.053Z,91.21
2023-01-30T18:54:23.301Z,91.32
2023-01-30T18:59:15.971Z,91.38
2023-01-30T19:13:04.681Z,90.98
2023-01-30T19:16:04.750Z,91.11
2023-01-30T19:19:39.635Z,91.69
2023-01-30T19:24:59.124Z,92.30
2023-01-30T19:38:53.178Z,91.30
2023-01-30T19:41:55.493Z,91.63
2023-01-30T19:45:35.116Z,92.44
2023-01-30T19:49:07.621Z,93.07
2023-01-30T20:03:59.012Z,93.20
2023-01-30T20:07:00.157Z,93.59
2023-01-30T20:35:10.651Z,93.97
2023-01-30T21:03:12.444Z,93.97
2023-01-30T22:13:41.705Z,94.24
2023-01-30T22:16:58.162Z,94.25
2023-01-30T22:31:16.824Z,94.14
2023-01-30T22:34:11.538Z,94.14
2023-01-30T22:38:06.838Z,94.20
